createdAt,value
2023-04-14T00:02:06.774Z,65.13
2023-04-14T00:04:35.175Z,63.76
2023-04-14T00:07:03.023Z,64.18
2023-04-14T00:09:30.692Z,64.54
2023-04-14T00:11:58.727Z,63.99
2023-04-14T00:14:26.443Z,64.15
2023-04-14T00:16:54.195Z,63.65
2023-04-14T00:19:22.263Z,63.73
2023-04-14T00:21:50.669Z,63.79
2023-04-14T00:24:18.315Z,63.50
2023-04-14T00:26:46.234Z,63.60
2023-04-14T00:29:14.486Z,63.26
2023-04-14T00:31:42.809Z,63.69
2023-04-14T00:34:10.744Z,62.92
2023-04-14T00:36:38.413Z,62.77
2023-04-14T00:39:05.962Z,63.03
2023-04-14T00:41:34.687Z,62.55
2023-04-14T00:44:02.305Z,62.18
2023-04-14T00:46:30.125Z,62.99
2023-04-14T00:48:58.164Z,61.92
2023-04-14T00:51:25.945Z,62.77
2023-04-14T00:53:54.104Z,62.85
2023-04-14T00:56:22.381Z,62.52
2023-04-14T00:58:51.956Z,62.23
2023-04-14T01:01:20.366Z,62.36
2023-04-14T01:03:48.673Z,63.38
2023-04-14T01:06:16.504Z,62.93
2023-04-14T01:08:44.243Z,63.62
2023-04-14T01:11:31.041Z,62.91
2023-04-14T01:14:08.210Z,62.49
2023-04-14T01:16:41.426Z,63.08
2023-04-14T01:19:24.608Z,63.09
2023-04-14T01:21:58.088Z,63.04
2023-04-14T01:25:02.773Z,63.55
2023-04-14T01:27:56.957Z,63.61
2023-04-14T01:30:52.559Z,63.52
2023-04-14T01:33:22.653Z,62.56
2023-04-14T01:36:01.111Z,62.63
2023-04-14T01:38:33.236Z,62.43
2023-04-14T01:41:05.370Z,62.93
2023-04-14T01:43:43.098Z,63.31
2023-04-14T01:46:13.790Z,62.58
2023-04-14T01:48:42.181Z,63.58
2023-04-14T01:51:10.205Z,64.00
2023-04-14T01:53:40.219Z,63.95
2023-04-14T01:56:09.514Z,63.92
2023-04-14T01:58:39.008Z,64.10
2023-04-14T02:01:07.532Z,64.69
2023-04-14T02:03:36.192Z,63.79
2023-04-14T02:06:04.988Z,64.03
2023-04-14T02:08:33.857Z,63.83
2023-04-14T02:11:02.673Z,63.40
2023-04-14T02:13:31.766Z,63.03
2023-04-14T02:16:00.729Z,63.47
2023-04-14T02:18:29.965Z,63.53
2023-04-14T02:20:59.289Z,63.26
2023-04-14T02:23:27.023Z,62.97
2023-04-14T02:26:02.760Z,63.07
2023-04-14T02:28:34.377Z,62.65
2023-04-14T02:31:06.504Z,62.40
2023-04-14T02:33:37.129Z,62.11
2023-04-14T02:36:29.541Z,60.60
2023-04-14T02:39:21.941Z,60.96
2023-04-14T02:41:57.737Z,61.46
2023-04-14T02:44:28.540Z,61.35
2023-04-14T02:46:59.208Z,61.47
2023-04-14T02:49:27.687Z,60.61
2023-04-14T02:51:56.279Z,60.90
2023-04-14T02:54:24.755Z,60.98
2023-04-14T02:56:53.314Z,61.00
2023-04-14T02:59:22.456Z,61.00
2023-04-14T03:01:51.803Z,61.45
2023-04-14T03:04:20.764Z,61.43
2023-04-14T03:06:48.777Z,61.97
2023-04-14T03:09:17.604Z,61.33
2023-04-14T03:11:46.608Z,61.46
2023-04-14T03:14:15.674Z,61.34
2023-04-14T03:16:43.511Z,62.23
2023-04-14T03:19:13.210Z,61.44
2023-04-14T03:21:42.186Z,61.79
2023-04-14T03:24:10.402Z,61.89
2023-04-14T03:26:38.828Z,61.83
2023-04-14T03:29:07.794Z,61.71
2023-04-14T03:31:36.923Z,61.85
2023-04-14T03:34:07.002Z,62.32
2023-04-14T03:36:35.163Z,62.28
2023-04-14T03:39:05.500Z,62.73
2023-04-14T03:41:36.738Z,63.11
2023-04-14T03:44:06.227Z,62.62
2023-04-14T03:46:34.566Z,63.35
2023-04-14T03:49:04.348Z,62.22
2023-04-14T03:51:32.229Z,62.35
2023-04-14T03:54:01.046Z,62.93
2023-04-14T03:56:29.382Z,62.90
2023-04-14T03:58:58.069Z,62.79
2023-04-14T04:01:26.346Z,63.27
2023-04-14T04:03:55.689Z,63.26
2023-04-14T04:06:24.077Z,63.46
2023-04-14T04:08:52.295Z,63.26
2023-04-14T04:11:20.841Z,63.42
2023-04-14T04:13:49.619Z,62.92
2023-04-14T04:16:17.978Z,63.53
2023-04-14T04:18:48.265Z,63.15
2023-04-14T04:21:18.168Z,63.14
2023-04-14T04:23:48.881Z,63.75
2023-04-14T04:26:16.599Z,62.68
2023-04-14T04:28:46.002Z,63.33
2023-04-14T04:31:14.892Z,63.30
2023-04-14T04:33:43.372Z,63.09
2023-04-14T04:36:11.899Z,62.85
2023-04-14T04:38:40.413Z,63.41
2023-04-14T04:41:08.020Z,62.88
2023-04-14T04:43:36.236Z,62.92
2023-04-14T04:46:04.208Z,63.38
2023-04-14T04:48:32.258Z,62.42
2023-04-14T04:50:59.992Z,62.71
2023-04-14T04:53:28.169Z,62.36
2023-04-14T04:55:55.938Z,63.01
2023-04-14T04:58:23.695Z,63.32
2023-04-14T05:00:51.935Z,64.01
2023-04-14T05:03:19.746Z,63.09
2023-04-14T05:05:47.474Z,63.42
2023-04-14T05:08:18.400Z,63.57
2023-04-14T05:10:46.549Z,63.80
2023-04-14T05:13:14.244Z,63.83
2023-04-14T05:15:42.445Z,63.93
2023-04-14T05:18:10.376Z,63.67
2023-04-14T05:20:38.008Z,63.68
2023-04-14T05:23:05.921Z,63.28
2023-04-14T05:25:33.567Z,63.17
2023-04-14T05:28:01.329Z,63.91
2023-04-14T05:30:29.398Z,63.63
2023-04-14T05:32:57.200Z,63.65
2023-04-14T05:35:24.841Z,64.13
2023-04-14T05:37:53.329Z,63.87
2023-04-14T05:40:20.991Z,64.17
2023-04-14T05:42:48.699Z,64.14
2023-04-14T05:45:16.653Z,63.85
2023-04-14T05:47:44.717Z,65.14
2023-04-14T05:50:12.667Z,64.09
2023-04-14T05:52:40.600Z,63.88
2023-04-14T05:55:08.499Z,63.13
2023-04-14T05:57:36.273Z,63.22
2023-04-14T06:00:05.265Z,62.07
2023-04-14T06:02:40.766Z,62.25
2023-04-14T06:05:09.463Z,63.05
2023-04-14T06:07:37.251Z,62.24
2023-04-14T06:10:05.704Z,61.92
2023-04-14T06:12:33.860Z,61.97
2023-04-14T06:15:01.604Z,61.39
2023-04-14T06:17:29.307Z,62.28
2023-04-14T06:19:57.340Z,62.30
2023-04-14T06:22:25.190Z,61.57
2023-04-14T06:24:53.571Z,61.39
2023-04-14T06:27:21.618Z,61.50
2023-04-14T06:29:49.260Z,62.02
2023-04-14T06:32:16.942Z,61.97
2023-04-14T06:34:45.616Z,61.24
2023-04-14T06:37:13.331Z,61.75
2023-04-14T06:39:41.375Z,61.27
2023-04-14T06:42:09.664Z,61.79
2023-04-14T06:44:37.788Z,62.47
2023-04-14T06:47:05.545Z,61.16
2023-04-14T06:49:33.767Z,61.47
2023-04-14T06:52:02.066Z,61.28
2023-04-14T06:54:30.397Z,61.65
2023-04-14T06:57:00.116Z,60.58
2023-04-14T06:59:28.933Z,61.08
2023-04-14T07:01:56.766Z,62.40
2023-04-14T07:04:24.854Z,61.48
2023-04-14T07:06:52.846Z,62.06
2023-04-14T07:09:20.422Z,62.21
2023-04-14T07:11:48.376Z,63.08
2023-04-14T07:14:16.549Z,61.09
2023-04-14T07:16:44.290Z,60.90
2023-04-14T07:19:12.218Z,60.26
2023-04-14T07:21:40.400Z,61.42
2023-04-14T07:24:08.126Z,60.99
2023-04-14T07:26:36.092Z,60.75
2023-04-14T07:29:03.942Z,60.00
2023-04-14T07:31:31.667Z,60.49
2023-04-14T07:34:00.098Z,60.89
2023-04-14T07:36:27.926Z,60.53
2023-04-14T07:38:56.042Z,59.56
2023-04-14T07:41:24.758Z,60.73
2023-04-14T07:43:52.587Z,60.32
2023-04-14T07:46:20.453Z,59.94
2023-04-14T07:48:48.480Z,60.72
2023-04-14T07:51:16.328Z,61.76
2023-04-14T07:53:44.190Z,61.28
2023-04-14T07:56:12.446Z,61.07
2023-04-14T07:58:40.152Z,60.51
2023-04-14T08:01:07.826Z,61.62
2023-04-14T08:03:36.105Z,60.94
2023-04-14T08:06:05.673Z,59.80
2023-04-14T08:08:34.392Z,60.50
2023-04-14T08:11:02.460Z,60.11
2023-04-14T08:13:30.096Z,59.62
2023-04-14T08:15:57.778Z,60.63
2023-04-14T08:18:25.819Z,60.97
2023-04-14T08:20:53.744Z,60.17
2023-04-14T08:23:21.505Z,59.60
2023-04-14T08:25:49.510Z,59.23
2023-04-14T08:28:17.265Z,59.58
2023-04-14T08:30:44.950Z,60.52
2023-04-14T08:33:12.956Z,60.13
2023-04-14T08:35:42.549Z,59.50
2023-04-14T08:38:11.364Z,59.56
2023-04-14T08:40:41.459Z,59.58
2023-04-14T08:43:11.167Z,59.74
2023-04-14T08:45:41.308Z,60.62
2023-04-14T08:48:09.622Z,60.39
2023-04-14T08:50:39.062Z,60.00
2023-04-14T08:53:09.508Z,60.88
2023-04-14T08:55:39.992Z,61.22
2023-04-14T08:58:08.449Z,61.10
2023-04-14T09:00:36.492Z,61.08
2023-04-14T09:03:04.787Z,62.06
2023-04-14T09:05:33.055Z,62.56
2023-04-14T09:08:00.728Z,62.98
2023-04-14T09:10:28.486Z,62.81
2023-04-14T09:12:56.602Z,65.22
2023-04-14T09:15:24.812Z,65.86
2023-04-14T09:17:53.715Z,67.16
2023-04-14T09:20:35.433Z,66.53
2023-04-14T09:23:08.479Z,69.64
2023-04-14T09:25:38.683Z,70.54
2023-04-14T09:28:06.322Z,72.00
2023-04-14T09:30:34.318Z,73.65
2023-04-14T09:33:07.124Z,73.32
2023-04-14T09:35:46.316Z,73.75
2023-04-14T09:38:14.877Z,74.31
2023-04-14T09:40:43.495Z,75.25
2023-04-14T09:43:27.296Z,76.41
2023-04-14T09:45:56.837Z,79.22
2023-04-14T09:48:24.580Z,79.27
2023-04-14T09:51:00.468Z,79.27
2023-04-14T09:53:36.034Z,80.20
2023-04-14T09:56:08.972Z,80.73
2023-04-14T09:58:42.380Z,81.67
2023-04-14T10:01:17.345Z,81.84
2023-04-14T10:03:47.169Z,81.67
2023-04-14T10:06:19.296Z,81.60
2023-04-14T10:08:51.776Z,83.43
2023-04-14T10:11:30.079Z,82.12
2023-04-14T10:14:03.181Z,80.94
2023-04-14T10:16:31.205Z,82.50
2023-04-14T10:18:59.726Z,81.04
2023-04-14T10:21:27.652Z,82.28
2023-04-14T10:23:56.810Z,82.82
2023-04-14T10:26:24.812Z,82.96
2023-04-14T10:28:54.147Z,82.95
2023-04-14T10:31:32.596Z,84.64
2023-04-14T10:34:07.726Z,84.53
2023-04-14T10:36:35.431Z,84.79
2023-04-14T10:39:05.108Z,84.88
2023-04-14T10:41:49.254Z,87.65
2023-04-14T10:44:24.802Z,87.49
2023-04-14T10:46:55.705Z,88.85
2023-04-14T10:49:25.584Z,88.21
2023-04-14T10:51:53.641Z,87.91
2023-04-14T10:54:21.355Z,88.45
2023-04-14T10:57:12.855Z,87.88
2023-04-14T10:59:45.729Z,87.40
2023-04-14T11:02:31.228Z,87.83
2023-04-14T11:04:59.684Z,87.98
2023-04-14T11:07:29.120Z,88.86
2023-04-14T11:10:05.041Z,89.44
2023-04-14T11:12:42.146Z,89.65
2023-04-14T11:15:10.146Z,89.66
2023-04-14T11:17:39.547Z,89.30
2023-04-14T11:20:20.295Z,89.76
2023-04-14T11:22:52.594Z,91.33
2023-04-14T11:25:23.970Z,90.25
2023-04-14T11:27:53.954Z,90.47
2023-04-14T11:30:21.801Z,90.55
2023-04-14T11:32:54.404Z,90.78
2023-04-14T11:35:24.401Z,90.45
2023-04-14T11:37:56.570Z,89.85
2023-04-14T11:40:26.108Z,89.77
2023-04-14T11:42:56.041Z,89.94
2023-04-14T11:45:30.475Z,89.43
2023-04-14T11:47:59.515Z,89.13
2023-04-14T11:50:30.086Z,89.82
2023-04-14T11:53:01.402Z,90.51
2023-04-14T11:55:29.784Z,89.05
2023-04-14T11:57:58.766Z,90.24
2023-04-14T12:00:29.461Z,91.33
2023-04-14T12:02:57.587Z,89.80
2023-04-14T12:05:25.758Z,89.08
2023-04-14T12:07:58.796Z,91.39
2023-04-14T12:10:27.781Z,91.12
2023-04-14T12:13:12.591Z,90.90
2023-04-14T12:15:41.239Z,89.19
2023-04-14T12:18:14.734Z,91.60
2023-04-14T12:20:44.974Z,91.82
2023-04-14T12:23:13.193Z,92.58
2023-04-14T12:25:40.955Z,92.53
2023-04-14T12:28:08.934Z,93.12
2023-04-14T12:30:37.372Z,93.27
2023-04-14T12:33:12.280Z,92.96
2023-04-14T12:35:40.294Z,92.55
2023-04-14T12:38:11.923Z,98.17
2023-04-14T12:40:41.385Z,100.00
2023-04-14T12:43:09.191Z,100.00
2023-04-14T12:45:40.842Z,100.00
2023-04-14T12:48:08.941Z,100.00
2023-04-14T12:50:36.768Z,100.00
2023-04-14T12:53:27.342Z,100.00
2023-04-14T12:56:05.395Z,100.00
2023-04-14T12:58:37.781Z,100.00
2023-04-14T13:01:06.986Z,100.00
2023-04-14T13:03:52.700Z,100.00
2023-04-14T13:06:22.504Z,100.00
2023-04-14T13:08:51.931Z,100.00
2023-04-14T13:11:21.447Z,100.00
2023-04-14T13:13:50.181Z,100.00
2023-04-14T13:16:19.743Z,100.00
2023-04-14T13:18:52.127Z,100.00
2023-04-14T13:21:19.841Z,100.00
2023-04-14T13:23:52.885Z,100.00
2023-04-14T13:26:20.825Z,100.00
2023-04-14T13:28:48.468Z,100.00
2023-04-14T13:31:22.118Z,99.68
2023-04-14T13:33:50.105Z,100.00
2023-04-14T13:36:17.651Z,100.00
2023-04-14T13:38:45.770Z,100.00
2023-04-14T13:41:13.794Z,100.00
2023-04-14T13:43:41.473Z,99.82
2023-04-14T13:46:09.282Z,100.00
2023-04-14T13:48:37.254Z,99.47
2023-04-14T13:51:05.455Z,98.29
2023-04-14T13:53:33.244Z,99.78
2023-04-14T13:56:01.552Z,100.00
2023-04-14T13:58:29.314Z,100.00
2023-04-14T14:01:01.002Z,100.00
2023-04-14T14:03:30.686Z,99.99
2023-04-14T14:05:59.829Z,98.19
2023-04-14T14:08:27.532Z,97.23
2023-04-14T14:10:55.602Z,98.61
2023-04-14T14:13:23.487Z,97.72
2023-04-14T14:15:51.354Z,99.07
2023-04-14T14:18:19.730Z,98.51
2023-04-14T14:20:47.412Z,97.08
2023-04-14T14:23:15.061Z,97.30
2023-04-14T14:25:43.282Z,97.62
2023-04-14T14:28:11.832Z,98.96
2023-04-14T14:30:39.750Z,98.61
2023-04-14T14:33:07.679Z,100.00
2023-04-14T14:35:35.339Z,100.00
2023-04-14T14:38:03.064Z,99.71
2023-04-14T14:40:31.114Z,100.00
2023-04-14T14:42:59.442Z,100.00
2023-04-14T14:45:31.068Z,100.00
2023-04-14T14:48:00.431Z,100.00
2023-04-14T14:50:29.452Z,100.00
2023-04-14T14:52:57.307Z,100.00
2023-04-14T14:55:25.938Z,100.00
2023-04-14T14:57:53.945Z,100.00
2023-04-14T15:00:24.760Z,100.00
2023-04-14T15:02:55.479Z,100.00
2023-04-14T15:05:23.438Z,100.00
2023-04-14T15:07:51.234Z,100.00
2023-04-14T15:10:19.240Z,100.00
2023-04-14T15:12:46.878Z,100.00
2023-04-14T15:15:14.538Z,100.00
2023-04-14T15:17:42.628Z,100.00
2023-04-14T15:20:10.774Z,100.00
2023-04-14T15:22:38.649Z,100.00
2023-04-14T15:25:06.921Z,100.00
2023-04-14T15:27:35.016Z,100.00
2023-04-14T15:30:03.017Z,100.00
2023-04-14T15:32:31.796Z,100.00
2023-04-14T15:34:59.485Z,99.52
2023-04-14T15:37:27.628Z,99.60
2023-04-14T15:39:55.918Z,99.90
2023-04-14T15:42:23.651Z,100.00
2023-04-14T15:44:51.366Z,99.94
2023-04-14T15:47:19.515Z,100.00
2023-04-14T15:49:49.960Z,100.00
2023-04-14T15:52:20.560Z,100.00
2023-04-14T15:54:48.474Z,100.00
2023-04-14T15:57:16.133Z,100.00
2023-04-14T15:59:44.136Z,100.00
2023-04-14T16:02:12.263Z,100.00
2023-04-14T16:04:40.267Z,100.00
2023-04-14T16:07:08.100Z,100.00
2023-04-14T16:09:35.756Z,100.00
2023-04-14T16:12:03.850Z,100.00
2023-04-14T16:14:32.170Z,100.00
2023-04-14T16:16:59.844Z,100.00
2023-04-14T16:19:27.878Z,99.71
2023-04-14T16:21:55.388Z,99.90
2023-04-14T16:24:23.021Z,99.35
2023-04-14T16:26:51.099Z,99.44
2023-04-14T16:29:18.728Z,100.00
2023-04-14T16:31:46.658Z,100.00
2023-04-14T16:34:14.712Z,100.00
2023-04-14T16:36:42.414Z,100.00
2023-04-14T16:39:10.201Z,100.00
2023-04-14T16:41:38.133Z,100.00
2023-04-14T16:44:06.590Z,100.00
2023-04-14T16:46:34.475Z,100.00
2023-04-14T16:49:03.038Z,100.00
2023-04-14T16:51:31.846Z,100.00
2023-04-14T16:54:00.299Z,100.00
2023-04-14T16:56:28.507Z,100.00
2023-04-14T16:58:57.127Z,100.00
2023-04-14T17:01:25.448Z,100.00
2023-04-14T17:03:54.219Z,99.61
2023-04-14T17:06:22.093Z,99.39
2023-04-14T17:08:50.213Z,98.33
2023-04-14T17:11:18.560Z,98.77
2023-04-14T17:13:46.710Z,97.83
2023-04-14T17:16:14.732Z,97.56
2023-04-14T17:18:42.792Z,97.73
2023-04-14T17:21:10.634Z,97.38
2023-04-14T17:23:39.985Z,98.24
2023-04-14T17:26:08.636Z,98.01
2023-04-14T17:28:36.368Z,97.72
2023-04-14T17:31:10.275Z,97.96
2023-04-14T17:33:38.597Z,97.02
2023-04-14T17:36:06.649Z,97.64
2023-04-14T17:38:34.619Z,97.02
2023-04-14T17:41:03.034Z,97.02
2023-04-14T17:43:30.983Z,97.47
2023-04-14T17:45:59.047Z,96.46
2023-04-14T17:48:27.866Z,97.12
2023-04-14T17:50:55.699Z,97.41
2023-04-14T17:53:23.659Z,97.36
2023-04-14T17:55:52.037Z,98.04
2023-04-14T17:58:21.884Z,98.41
2023-04-14T18:00:56.196Z,99.04
2023-04-14T18:03:24.614Z,98.44
2023-04-14T18:05:53.990Z,98.43
2023-04-14T18:08:21.997Z,98.75
2023-04-14T18:10:50.237Z,98.12
2023-04-14T18:13:18.045Z,96.91
2023-04-14T18:15:45.938Z,97.06
2023-04-14T18:18:14.181Z,96.61
2023-04-14T18:20:45.049Z,96.77
2023-04-14T18:23:13.319Z,98.24
2023-04-14T18:28:12.313Z,97.21
2023-04-14T18:30:40.401Z,96.78
2023-04-14T18:33:09.109Z,95.17
2023-04-14T18:35:36.672Z,94.10
2023-04-14T18:38:04.530Z,92.85
2023-04-14T18:40:37.607Z,92.20
2023-04-14T18:43:05.507Z,92.90
2023-04-14T18:45:33.648Z,92.74
2023-04-14T18:48:01.949Z,93.18
2023-04-14T18:50:29.934Z,93.06
2023-04-14T18:52:58.466Z,93.82
2023-04-14T18:55:26.414Z,94.31
2023-04-14T18:58:08.960Z,94.34
2023-04-14T19:00:36.914Z,94.91
2023-04-14T19:03:04.751Z,93.63
2023-04-14T19:05:33.056Z,93.30
2023-04-14T19:08:01.066Z,93.05
2023-04-14T19:10:29.611Z,93.44
2023-04-14T19:12:58.324Z,92.55
2023-04-14T19:15:26.705Z,92.52
2023-04-14T19:17:55.355Z,92.44
2023-04-14T19:20:23.739Z,92.95
2023-04-14T19:22:51.836Z,91.35
2023-04-14T19:25:19.981Z,91.23
2023-04-14T19:27:47.941Z,90.99
2023-04-14T19:30:15.708Z,90.77
2023-04-14T19:32:43.754Z,90.98
2023-04-14T19:35:12.231Z,90.81
2023-04-14T19:37:40.320Z,90.34
2023-04-14T19:40:08.701Z,89.04
2023-04-14T19:42:36.967Z,89.38
2023-04-14T19:45:05.642Z,90.62
2023-04-14T19:47:33.475Z,89.41
2023-04-14T19:50:01.786Z,88.37
2023-04-14T19:52:29.944Z,88.24
2023-04-14T19:55:00.666Z,87.80
2023-04-14T19:57:28.854Z,87.89
2023-04-14T19:59:56.906Z,87.94
2023-04-14T20:02:29.852Z,87.80
2023-04-14T20:04:59.841Z,87.64
2023-04-14T20:07:28.185Z,87.89
2023-04-14T20:09:56.241Z,87.63
2023-04-14T20:12:24.552Z,87.25
2023-04-14T20:14:52.688Z,87.06
2023-04-14T20:17:20.612Z,87.22
2023-04-14T20:19:48.948Z,86.95
2023-04-14T20:22:17.286Z,87.09
2023-04-14T20:24:45.234Z,87.05
2023-04-14T20:27:13.421Z,87.52
2023-04-14T20:29:41.446Z,86.84
2023-04-14T20:32:09.465Z,85.76
2023-04-14T20:34:37.652Z,87.46
2023-04-14T20:37:05.309Z,87.49
2023-04-14T20:39:33.300Z,88.62
2023-04-14T20:42:01.621Z,87.78
2023-04-14T20:44:29.578Z,87.21
2023-04-14T20:46:57.473Z,87.20
2023-04-14T20:49:25.583Z,88.31
2023-04-14T20:51:53.706Z,87.40
2023-04-14T20:54:21.671Z,89.02
2023-04-14T20:56:49.886Z,88.78
2023-04-14T20:59:17.970Z,88.42
2023-04-14T21:01:45.944Z,87.90
2023-04-14T21:04:14.530Z,87.62
2023-04-14T21:06:42.458Z,87.65
2023-04-14T21:09:10.182Z,87.90
2023-04-14T21:11:38.172Z,87.50
2023-04-14T21:15:29.449Z,87.27
2023-04-14T21:16:53.936Z,88.32
2023-04-14T21:19:21.636Z,88.37
2023-04-14T21:21:49.337Z,88.49
2023-04-14T21:24:17.415Z,89.39
2023-04-14T21:26:45.537Z,89.71
2023-04-14T21:29:13.449Z,90.23
2023-04-14T21:31:41.823Z,90.63
2023-04-14T21:34:09.828Z,90.66
2023-04-14T21:36:37.577Z,91.34
2023-04-14T21:39:05.614Z,91.29
2023-04-14T21:41:33.249Z,90.25
2023-04-14T21:44:01.009Z,91.93
2023-04-14T21:46:29.021Z,91.50
2023-04-14T21:48:56.725Z,91.92
2023-04-14T21:51:24.632Z,91.97
2023-04-14T21:53:52.715Z,91.79
2023-04-14T21:56:20.394Z,90.86
2023-04-14T21:58:48.084Z,92.39
2023-04-14T22:01:16.132Z,92.55
2023-04-14T22:03:44.727Z,91.36
2023-04-14T22:06:13.070Z,90.96
2023-04-14T22:08:41.267Z,91.46
2023-04-14T22:11:12.406Z,93.11
2023-04-14T22:13:40.288Z,92.93
2023-04-14T22:16:08.345Z,92.98
2023-04-14T22:18:36.628Z,92.24
2023-04-14T22:21:08.961Z,91.61
2023-04-14T22:23:37.270Z,92.14
2023-04-14T22:26:05.025Z,92.02
2023-04-14T22:28:32.903Z,93.01
2023-04-14T22:31:01.259Z,93.13
2023-04-14T22:33:28.922Z,93.04
2023-04-14T22:35:56.510Z,92.34
2023-04-14T22:38:24.491Z,92.40
2023-04-14T22:40:52.762Z,92.21
2023-04-14T22:43:20.835Z,92.05
2023-04-14T22:45:48.832Z,92.71
2023-04-14T22:48:16.579Z,92.38
2023-04-14T22:50:44.434Z,92.52
2023-04-14T22:53:12.467Z,92.07
2023-04-14T22:55:40.114Z,92.44
2023-04-14T22:58:07.672Z,91.99
2023-04-14T23:00:35.582Z,92.59
2023-04-14T23:03:03.387Z,93.09
2023-04-14T23:05:31.122Z,94.36
2023-04-14T23:07:59.077Z,93.40
2023-04-14T23:10:26.789Z,93.45
2023-04-14T23:12:54.638Z,93.83
2023-04-14T23:15:22.950Z,94.54
2023-04-14T23:17:50.656Z,95.71
2023-04-14T23:20:18.303Z,95.08
2023-04-14T23:22:47.326Z,93.42
2023-04-14T23:25:15.034Z,94.31
2023-04-14T23:27:42.747Z,94.55
2023-04-14T23:30:10.870Z,94.29
2023-04-14T23:32:38.641Z,95.04
2023-04-14T23:35:07.030Z,95.17
2023-04-14T23:37:35.059Z,94.85
2023-04-14T23:40:03.706Z,93.86
2023-04-14T23:42:31.687Z,93.62
2023-04-14T23:45:00.254Z,93.84
2023-04-14T23:47:27.965Z,94.22
2023-04-14T23:49:55.566Z,93.39
2023-04-14T23:52:23.678Z,93.41
2023-04-14T23:54:51.466Z,93.16
2023-04-14T23:57:19.346Z,92.46
2023-04-14T23:59:47.264Z,92.72
